createdAt,value
2022-12-08T00:01:14.357Z,9.07
2022-12-08T00:03:41.756Z,9.38
2022-12-08T00:06:51.966Z,8.65
2022-12-08T00:09:39.978Z,9.32
2022-12-08T00:12:09.409Z,8.00
2022-12-08T00:14:44.499Z,7.07
2022-12-08T00:17:14.036Z,8.23
2022-12-08T00:19:41.423Z,6.80
2022-12-08T00:22:09.352Z,6.88
2022-12-08T00:24:39.699Z,7.57
2022-12-08T00:27:08.181Z,7.30
2022-12-08T00:29:34.937Z,7.22
2022-12-08T00:32:01.863Z,7.22
2022-12-08T00:34:28.742Z,7.60
2022-12-08T00:36:55.577Z,7.20
2022-12-08T00:39:22.443Z,6.90
2022-12-08T00:42:07.975Z,7.38
2022-12-08T00:44:34.674Z,6.78
2022-12-08T00:47:01.420Z,7.25
2022-12-08T00:49:28.129Z,8.80
2022-12-08T00:51:57.636Z,6.13
2022-12-08T00:54:24.534Z,6.90
2022-12-08T00:56:51.816Z,7.07
2022-12-08T00:59:18.877Z,6.00
2022-12-08T01:01:46.659Z,6.22
2022-12-08T01:04:15.593Z,7.40
2022-12-08T01:06:42.845Z,6.15
2022-12-08T01:09:11.155Z,6.95
2022-12-08T01:11:38.021Z,5.47
2022-12-08T01:14:05.066Z,7.10
2022-12-08T01:16:35.052Z,6.25
2022-12-08T01:19:02.059Z,7.47
2022-12-08T01:21:29.041Z,5.95
2022-12-08T01:23:56.144Z,6.18
2022-12-08T01:26:22.829Z,6.53
2022-12-08T01:28:49.769Z,5.78
2022-12-08T01:31:19.563Z,7.93
2022-12-08T01:33:47.092Z,7.75
2022-12-08T01:36:21.690Z,6.82
2022-12-08T01:38:48.810Z,7.03
2022-12-08T01:41:17.921Z,7.00
2022-12-08T01:44:10.647Z,7.03
2022-12-08T01:46:39.998Z,7.45
2022-12-08T01:49:15.536Z,6.03
2022-12-08T01:51:51.135Z,7.72
2022-12-08T01:54:19.420Z,6.90
2022-12-08T01:56:55.076Z,5.97
2022-12-08T01:59:23.590Z,7.10
2022-12-08T02:01:51.332Z,6.75
2022-12-08T02:04:18.309Z,6.07
2022-12-08T02:06:47.622Z,6.65
2022-12-08T02:09:14.687Z,6.57
2022-12-08T02:11:41.358Z,5.90
2022-12-08T02:14:10.195Z,6.50
2022-12-08T02:16:54.180Z,6.95
2022-12-08T02:19:58.616Z,7.13
2022-12-08T02:22:45.158Z,6.25
2022-12-08T02:25:33.542Z,6.40
2022-12-08T02:28:15.889Z,6.45
2022-12-08T02:30:42.639Z,6.20
2022-12-08T02:33:46.853Z,6.07
2022-12-08T02:36:22.728Z,6.10
2022-12-08T02:39:10.945Z,6.03
2022-12-08T02:42:00.852Z,5.40
2022-12-08T02:44:35.409Z,5.82
2022-12-08T02:47:19.705Z,5.28
2022-12-08T02:49:47.060Z,5.88
2022-12-08T02:52:13.684Z,6.40
2022-12-08T02:54:50.801Z,7.07
2022-12-08T02:57:26.727Z,6.07
2022-12-08T02:59:53.436Z,6.70
2022-12-08T03:02:42.290Z,6.03
2022-12-08T03:05:27.313Z,6.22
2022-12-08T03:08:08.644Z,5.88
2022-12-08T03:10:45.658Z,5.65
2022-12-08T03:13:16.155Z,6.45
2022-12-08T03:15:46.694Z,6.50
2022-12-08T03:18:15.998Z,5.97
2022-12-08T03:20:45.188Z,5.68
2022-12-08T03:23:14.748Z,6.82
2022-12-08T03:25:48.406Z,6.72
2022-12-08T03:28:15.717Z,6.53
2022-12-08T03:30:46.017Z,5.78
2022-12-08T03:33:35.683Z,4.70
2022-12-08T03:36:06.583Z,5.22
2022-12-08T03:38:44.593Z,5.65
2022-12-08T03:41:18.254Z,5.60
2022-12-08T03:43:59.390Z,5.47
2022-12-08T03:48:54.254Z,6.13
2022-12-08T03:51:21.994Z,5.55
2022-12-08T03:53:49.450Z,6.65
2022-12-08T03:56:30.655Z,5.93
2022-12-08T03:58:57.423Z,5.80
2022-12-08T04:01:24.644Z,6.80
2022-12-08T04:03:51.878Z,6.07
2022-12-08T04:06:19.584Z,5.40
2022-12-08T04:08:46.916Z,5.63
2022-12-08T04:11:14.155Z,6.05
2022-12-08T04:13:42.934Z,5.88
2022-12-08T04:16:14.715Z,4.75
2022-12-08T04:18:41.502Z,5.35
2022-12-08T04:21:08.313Z,5.45
2022-12-08T04:23:34.994Z,6.13
2022-12-08T04:26:01.965Z,5.72
2022-12-08T04:28:29.422Z,5.70
2022-12-08T04:30:56.317Z,6.10
2022-12-08T04:33:23.262Z,5.60
2022-12-08T04:35:50.264Z,6.03
2022-12-08T04:38:17.142Z,5.45
2022-12-08T04:40:44.005Z,5.93
2022-12-08T04:43:10.692Z,5.45
2022-12-08T04:45:40.078Z,6.35
2022-12-08T04:48:06.859Z,5.50
2022-12-08T04:50:34.099Z,5.32
2022-12-08T04:53:00.905Z,4.88
2022-12-08T04:55:27.729Z,5.40
2022-12-08T04:57:55.577Z,5.45
2022-12-08T05:00:22.425Z,5.97
2022-12-08T05:02:49.282Z,6.25
2022-12-08T05:05:16.110Z,5.85
2022-12-08T05:07:42.892Z,6.28
2022-12-08T05:10:09.855Z,5.60
2022-12-08T05:12:39.228Z,5.03
2022-12-08T05:15:06.581Z,5.07
2022-12-08T05:17:33.354Z,5.15
2022-12-08T05:20:00.240Z,5.43
2022-12-08T05:22:29.971Z,5.47
2022-12-08T05:24:56.774Z,5.28
2022-12-08T05:27:23.515Z,6.05
2022-12-08T05:29:50.203Z,5.80
2022-12-08T05:32:17.262Z,6.50
2022-12-08T05:34:43.956Z,5.97
2022-12-08T05:37:10.705Z,5.82
2022-12-08T05:39:37.611Z,5.85
2022-12-08T05:42:04.668Z,6.35
2022-12-08T05:44:31.673Z,5.90
2022-12-08T05:46:58.470Z,5.68
2022-12-08T05:49:25.334Z,5.15
2022-12-08T05:51:52.169Z,5.30
2022-12-08T05:54:18.882Z,5.10
2022-12-08T05:56:45.591Z,4.70
2022-12-08T05:59:12.340Z,5.18
2022-12-08T06:01:39.202Z,4.70
2022-12-08T06:04:05.946Z,5.20
2022-12-08T06:06:35.026Z,5.88
2022-12-08T06:09:06.167Z,5.75
2022-12-08T06:11:33.451Z,4.88
2022-12-08T06:14:00.995Z,4.82
2022-12-08T06:16:28.953Z,4.60
2022-12-08T06:18:56.475Z,5.72
2022-12-08T06:21:23.415Z,5.43
2022-12-08T06:23:52.222Z,5.63
2022-12-08T06:26:19.753Z,5.13
2022-12-08T06:28:46.968Z,6.43
2022-12-08T06:31:22.107Z,5.65
2022-12-08T06:33:49.041Z,5.13
2022-12-08T06:36:17.846Z,5.45
2022-12-08T06:38:44.737Z,6.25
2022-12-08T06:41:12.553Z,5.57
2022-12-08T06:43:40.841Z,6.07
2022-12-08T06:46:10.630Z,5.80
2022-12-08T06:48:37.557Z,7.63
2022-12-08T06:51:14.835Z,6.32
2022-12-08T06:53:42.353Z,6.80
2022-12-08T06:56:10.184Z,6.10
2022-12-08T06:58:37.351Z,6.47
2022-12-08T07:01:08.636Z,7.07
2022-12-08T07:03:37.998Z,7.00
2022-12-08T07:06:05.981Z,5.53
2022-12-08T07:08:34.035Z,6.93
2022-12-08T07:11:07.341Z,6.43
2022-12-08T07:13:34.011Z,6.15
2022-12-08T07:16:00.700Z,6.38
2022-12-08T07:18:27.374Z,7.10
2022-12-08T07:20:54.078Z,6.75
2022-12-08T07:23:20.793Z,6.53
2022-12-08T07:25:47.489Z,6.57
2022-12-08T07:28:14.181Z,5.70
2022-12-08T07:30:40.954Z,6.03
2022-12-08T07:33:07.685Z,7.30
2022-12-08T07:35:35.390Z,8.13
2022-12-08T07:38:05.114Z,7.20
2022-12-08T07:40:31.797Z,6.88
2022-12-08T07:42:58.521Z,8.05
2022-12-08T07:45:31.282Z,8.38
2022-12-08T07:47:58.542Z,6.57
2022-12-08T07:50:25.372Z,7.05
2022-12-08T07:52:52.047Z,7.55
2022-12-08T07:55:18.762Z,7.60
2022-12-08T07:57:45.448Z,7.53
2022-12-08T08:00:12.823Z,7.13
2022-12-08T08:02:40.000Z,7.18
2022-12-08T08:05:07.325Z,8.35
2022-12-08T08:07:34.235Z,6.35
2022-12-08T08:10:00.961Z,6.95
2022-12-08T08:12:32.321Z,6.80
2022-12-08T08:15:04.552Z,8.45
2022-12-08T08:17:32.934Z,7.75
2022-12-08T08:20:00.027Z,7.22
2022-12-08T08:22:27.164Z,8.50
2022-12-08T08:24:54.351Z,6.82
2022-12-08T08:27:21.410Z,7.78
2022-12-08T08:29:48.077Z,8.93
2022-12-08T08:32:14.781Z,7.90
2022-12-08T08:34:41.465Z,7.30
2022-12-08T08:37:08.314Z,8.30
2022-12-08T08:39:35.272Z,7.70
2022-12-08T08:42:03.393Z,7.82
2022-12-08T08:44:30.137Z,7.18
2022-12-08T08:46:56.850Z,8.07
2022-12-08T08:49:23.571Z,7.95
2022-12-08T08:51:51.400Z,7.57
2022-12-08T08:54:18.083Z,8.85
2022-12-08T08:56:44.787Z,8.30
2022-12-08T08:59:11.566Z,7.82
2022-12-08T09:01:38.496Z,8.07
2022-12-08T09:04:05.456Z,6.88
2022-12-08T09:06:32.384Z,8.25
2022-12-08T09:08:59.136Z,8.13
2022-12-08T09:11:25.919Z,8.13
2022-12-08T09:13:54.228Z,8.20
2022-12-08T09:16:21.674Z,7.15
2022-12-08T09:18:51.528Z,8.57
2022-12-08T09:21:22.682Z,7.60
2022-12-08T09:23:50.553Z,7.75
2022-12-08T09:26:17.486Z,7.72
2022-12-08T09:28:46.431Z,8.13
2022-12-08T09:31:14.866Z,8.52
2022-12-08T09:33:42.032Z,7.97
2022-12-08T09:36:10.155Z,8.10
2022-12-08T09:38:39.708Z,7.60
2022-12-08T09:41:22.016Z,8.57
2022-12-08T09:44:18.126Z,8.68
2022-12-08T09:46:48.161Z,7.72
2022-12-08T09:49:18.429Z,7.95
2022-12-08T09:51:48.516Z,8.02
2022-12-08T09:54:34.927Z,8.63
2022-12-08T09:57:07.365Z,6.97
2022-12-08T09:59:35.275Z,6.88
2022-12-08T10:02:08.042Z,6.60
2022-12-08T10:04:37.092Z,8.10
2022-12-08T10:07:20.727Z,7.80
2022-12-08T10:10:22.333Z,7.10
2022-12-08T10:12:55.080Z,7.78
2022-12-08T10:16:00.531Z,7.65
2022-12-08T10:18:33.716Z,7.85
2022-12-08T10:21:16.133Z,7.38
2022-12-08T10:23:47.865Z,6.20
2022-12-08T10:28:45.360Z,6.43
2022-12-08T10:31:21.451Z,7.10
2022-12-08T10:33:53.800Z,6.40
2022-12-08T10:36:20.507Z,6.50
2022-12-08T10:38:47.205Z,7.85
2022-12-08T10:41:17.940Z,6.63
2022-12-08T10:43:53.353Z,8.20
2022-12-08T10:46:27.903Z,6.57
2022-12-08T10:49:10.412Z,6.65
2022-12-08T10:51:42.287Z,7.30
2022-12-08T10:54:29.629Z,6.72
2022-12-08T10:56:57.459Z,9.27
2022-12-08T10:59:25.612Z,7.88
2022-12-08T11:01:57.314Z,7.28
2022-12-08T11:04:36.151Z,6.72
2022-12-08T11:07:08.961Z,6.53
2022-12-08T11:09:35.690Z,7.30
2022-12-08T11:12:16.535Z,7.35
2022-12-08T11:14:43.247Z,6.20
2022-12-08T11:17:21.713Z,6.18
2022-12-08T11:20:09.749Z,5.45
2022-12-08T11:22:40.588Z,7.47
2022-12-08T11:25:07.382Z,5.90
2022-12-08T11:27:48.950Z,7.35
2022-12-08T11:30:22.070Z,5.68
2022-12-08T11:32:58.406Z,5.80
2022-12-08T11:35:37.060Z,5.03
2022-12-08T11:38:21.467Z,9.13
2022-12-08T11:40:53.137Z,7.00
2022-12-08T11:43:33.278Z,5.07
2022-12-08T11:46:02.290Z,5.53
2022-12-08T11:48:36.859Z,9.93
2022-12-08T11:51:29.717Z,6.18
2022-12-08T11:54:11.639Z,3.97
2022-12-08T11:56:49.863Z,4.55
2022-12-08T11:59:29.187Z,4.47
2022-12-08T12:02:00.826Z,4.05
2022-12-08T12:04:44.754Z,4.80
2022-12-08T12:07:27.222Z,3.92
2022-12-08T12:10:20.170Z,3.70
2022-12-08T12:12:58.721Z,5.07
2022-12-08T12:15:34.416Z,6.57
2022-12-08T12:18:19.779Z,4.05
2022-12-08T12:21:00.437Z,3.40
2022-12-08T12:23:42.806Z,4.93
2022-12-08T12:26:18.990Z,3.65
2022-12-08T12:28:52.525Z,5.63
2022-12-08T12:31:24.618Z,5.40
2022-12-08T12:33:53.718Z,5.60
2022-12-08T12:36:21.947Z,4.93
2022-12-08T12:39:09.250Z,4.10
2022-12-08T12:41:42.078Z,5.30
2022-12-08T12:44:14.650Z,3.60
2022-12-08T12:46:50.096Z,3.78
2022-12-08T12:49:43.884Z,5.20
2022-12-08T12:52:16.652Z,4.55
2022-12-08T12:54:49.467Z,3.92
2022-12-08T12:57:22.596Z,4.60
2022-12-08T12:59:56.160Z,5.03
2022-12-08T13:02:36.049Z,3.60
2022-12-08T13:05:28.881Z,4.30
2022-12-08T13:08:26.307Z,4.10
2022-12-08T13:11:09.690Z,4.20
2022-12-08T13:13:38.520Z,3.67
2022-12-08T13:16:19.401Z,3.92
2022-12-08T13:18:53.131Z,3.92
2022-12-08T13:21:22.016Z,4.05
2022-12-08T13:24:17.651Z,3.97
2022-12-08T13:26:46.528Z,3.75
2022-12-08T13:29:26.414Z,3.47
2022-12-08T13:31:57.871Z,2.97
2022-12-08T13:34:41.891Z,3.83
2022-12-08T13:37:11.398Z,3.88
2022-12-08T13:39:40.884Z,3.30
2022-12-08T13:42:35.274Z,4.32
2022-12-08T13:45:59.010Z,3.97
2022-12-08T13:48:31.151Z,3.78
2022-12-08T13:55:19.708Z,4.30
2022-12-08T13:57:26.478Z,3.42
2022-12-08T13:59:53.238Z,4.32
2022-12-08T14:02:30.658Z,11.48
2022-12-08T14:07:46.760Z,4.53
2022-12-08T14:10:21.897Z,4.20
2022-12-08T14:12:55.455Z,3.45
2022-12-08T14:15:24.954Z,4.45
2022-12-08T14:17:57.125Z,4.38
2022-12-08T14:20:29.728Z,4.45
2022-12-08T14:22:57.499Z,4.60
2022-12-08T14:25:27.990Z,4.72
2022-12-08T14:28:03.770Z,4.43
2022-12-08T14:30:37.090Z,4.40
2022-12-08T14:33:05.283Z,4.03
2022-12-08T14:35:37.451Z,4.15
2022-12-08T14:38:11.987Z,5.13
2022-12-08T14:40:40.801Z,4.60
2022-12-08T14:43:07.517Z,4.07
2022-12-08T14:45:46.187Z,4.00
2022-12-08T14:48:33.583Z,4.18
2022-12-08T14:51:14.536Z,4.22
2022-12-08T14:54:02.219Z,3.73
2022-12-08T14:56:50.271Z,4.50
2022-12-08T14:59:31.111Z,4.50
2022-12-08T15:02:15.838Z,4.00
2022-12-08T15:04:45.891Z,3.22
2022-12-08T15:07:19.197Z,3.58
2022-12-08T15:09:48.870Z,4.25
2022-12-08T15:12:26.390Z,4.22
2022-12-08T15:14:59.193Z,3.80
2022-12-08T15:17:40.909Z,4.45
2022-12-08T15:23:01.994Z,4.85
2022-12-08T15:25:28.740Z,4.30
2022-12-08T15:27:58.806Z,4.75
2022-12-08T15:30:26.424Z,4.70
2022-12-08T15:32:54.153Z,5.35
2022-12-08T15:35:21.314Z,4.93
2022-12-08T15:37:48.114Z,4.78
2022-12-08T15:40:20.867Z,4.88
2022-12-08T15:42:48.115Z,5.13
2022-12-08T15:45:16.272Z,4.03
2022-12-08T15:47:44.215Z,4.60
2022-12-08T15:50:21.595Z,5.20
2022-12-08T15:52:50.119Z,3.90
2022-12-08T15:55:18.889Z,5.15
2022-12-08T15:58:51.745Z,4.40
2022-12-08T16:00:54.188Z,4.43
2022-12-08T16:09:19.789Z,4.70
2022-12-08T16:12:07.800Z,4.68
2022-12-08T16:17:22.280Z,4.50
2022-12-08T16:19:49.185Z,4.60
2022-12-08T16:25:22.052Z,4.97
2022-12-08T16:28:36.817Z,4.47
2022-12-08T16:30:40.090Z,4.30
2022-12-08T16:33:06.902Z,4.40
2022-12-08T16:35:33.762Z,3.78
2022-12-08T16:38:00.495Z,3.63
2022-12-08T16:40:27.217Z,4.05
2022-12-08T16:42:53.963Z,4.55
2022-12-08T16:45:30.347Z,4.00
2022-12-08T16:48:00.915Z,3.83
2022-12-08T16:50:33.547Z,4.07
2022-12-08T16:53:03.152Z,4.57
2022-12-08T16:55:30.248Z,5.10
2022-12-08T16:57:57.713Z,4.28
2022-12-08T17:00:26.766Z,3.67
2022-12-08T17:02:54.642Z,4.43
2022-12-08T17:05:23.211Z,4.30
2022-12-08T17:07:51.856Z,4.22
2022-12-08T17:10:23.586Z,3.50
2022-12-08T17:15:19.457Z,3.55
2022-12-08T17:17:46.213Z,4.15
2022-12-08T17:20:15.842Z,3.35
2022-12-08T17:22:42.850Z,3.90
2022-12-08T17:25:09.843Z,3.72
2022-12-08T17:27:37.082Z,3.70
2022-12-08T17:30:09.031Z,4.05
2022-12-08T17:32:37.788Z,3.42
2022-12-08T17:35:05.262Z,3.95
2022-12-08T17:37:32.228Z,4.95
2022-12-08T17:39:58.945Z,3.75
2022-12-08T17:42:27.126Z,4.05
2022-12-08T17:44:54.198Z,4.10
2022-12-08T17:47:21.389Z,3.65
2022-12-08T17:49:48.183Z,3.00
2022-12-08T17:52:15.115Z,3.80
2022-12-08T17:54:41.887Z,3.47
2022-12-08T17:57:08.570Z,3.90
2022-12-08T17:59:35.521Z,3.50
2022-12-08T18:02:02.525Z,3.55
2022-12-08T18:04:29.351Z,4.38
2022-12-08T18:06:58.203Z,3.15
2022-12-08T18:09:24.977Z,4.18
2022-12-08T18:11:51.797Z,3.70
2022-12-08T18:14:18.533Z,3.88
2022-12-08T18:16:46.901Z,4.40
2022-12-08T18:19:14.907Z,3.95
2022-12-08T18:21:42.514Z,5.63
2022-12-08T18:24:15.113Z,9.15
2022-12-08T18:26:41.844Z,7.10
2022-12-08T18:29:08.533Z,5.45
2022-12-08T18:31:35.459Z,4.40
2022-12-08T18:34:02.320Z,4.47
2022-12-08T18:36:29.193Z,3.88
2022-12-08T18:38:55.910Z,4.22
2022-12-08T18:41:25.686Z,3.65
2022-12-08T18:43:54.448Z,4.60
2022-12-08T18:46:21.654Z,4.28
2022-12-08T18:48:50.254Z,3.50
2022-12-08T18:51:22.620Z,3.25
2022-12-08T18:53:49.767Z,3.47
2022-12-08T18:56:33.695Z,4.05
2022-12-08T18:59:04.792Z,3.72
2022-12-08T19:01:41.301Z,4.32
2022-12-08T19:04:27.768Z,4.25
2022-12-08T19:06:55.104Z,4.00
2022-12-08T19:09:22.787Z,3.67
2022-12-08T19:11:49.664Z,3.72
2022-12-08T19:14:16.557Z,4.45
2022-12-08T19:16:43.272Z,3.42
2022-12-08T19:19:10.054Z,3.72
2022-12-08T19:21:41.532Z,3.55
2022-12-08T19:24:12.819Z,3.75
2022-12-08T19:26:40.237Z,5.22
2022-12-08T19:29:07.374Z,3.80
2022-12-08T19:31:34.567Z,4.25
2022-12-08T19:34:01.350Z,4.75
2022-12-08T19:36:33.776Z,4.00
2022-12-08T19:39:19.680Z,4.38
2022-12-08T19:42:05.337Z,4.10
2022-12-08T19:44:50.496Z,3.90
2022-12-08T19:47:17.368Z,4.18
2022-12-08T19:49:44.452Z,4.50
2022-12-08T19:52:11.159Z,4.25
2022-12-08T19:54:38.042Z,4.80
2022-12-08T19:57:05.137Z,4.13
2022-12-08T19:59:31.886Z,5.03
2022-12-08T20:01:59.125Z,4.07
2022-12-08T20:04:27.361Z,4.22
2022-12-08T20:06:56.093Z,4.57
2022-12-08T20:09:23.738Z,4.55
2022-12-08T20:11:51.163Z,5.78
2022-12-08T20:14:18.384Z,6.88
2022-12-08T20:16:45.232Z,7.97
2022-12-08T20:19:12.231Z,6.53
2022-12-08T20:21:40.089Z,7.20
2022-12-08T20:24:07.340Z,4.80
2022-12-08T20:26:34.160Z,5.95
2022-12-08T20:29:00.887Z,6.28
2022-12-08T20:31:32.981Z,6.78
2022-12-08T20:34:00.810Z,6.65
2022-12-08T20:36:28.142Z,8.38
2022-12-08T20:38:55.190Z,8.38
2022-12-08T20:41:23.375Z,10.10
2022-12-08T20:43:51.366Z,10.25
2022-12-08T20:46:19.936Z,10.35
2022-12-08T20:48:47.824Z,10.27
2022-12-08T20:51:19.498Z,10.95
2022-12-08T20:53:47.046Z,10.05
2022-12-08T20:56:16.207Z,10.43
2022-12-08T20:58:43.220Z,11.35
2022-12-08T21:01:11.629Z,9.38
2022-12-08T21:03:39.235Z,10.30
2022-12-08T21:06:07.125Z,9.27
2022-12-08T21:08:34.456Z,8.98
2022-12-08T21:11:01.774Z,10.65
2022-12-08T21:13:28.585Z,9.90
2022-12-08T21:15:55.820Z,9.93
2022-12-08T21:18:23.597Z,9.82
2022-12-08T21:20:52.339Z,8.35
2022-12-08T21:23:19.812Z,9.95
2022-12-08T21:25:47.266Z,10.13
2022-12-08T21:28:14.181Z,7.50
2022-12-08T21:30:41.494Z,7.40
2022-12-08T21:33:08.729Z,7.57
2022-12-08T21:35:35.458Z,9.50
2022-12-08T21:38:03.771Z,7.28
2022-12-08T21:40:30.569Z,7.75
2022-12-08T21:42:57.307Z,7.07
2022-12-08T21:45:23.988Z,6.55
2022-12-08T21:47:51.140Z,6.15
2022-12-08T21:50:18.887Z,6.53
2022-12-08T21:52:48.293Z,8.40
2022-12-08T21:55:16.988Z,7.78
2022-12-08T21:57:43.866Z,7.65
2022-12-08T22:00:15.122Z,8.35
2022-12-08T22:02:42.382Z,8.82
2022-12-08T22:05:09.908Z,8.35
2022-12-08T22:07:40.716Z,7.22
2022-12-08T22:10:09.061Z,7.70
2022-12-08T22:12:37.182Z,8.88
2022-12-08T22:15:08.397Z,9.80
2022-12-08T22:17:39.878Z,10.20
2022-12-08T22:20:09.186Z,7.72
2022-12-08T22:22:36.523Z,7.68
2022-12-08T22:25:06.131Z,9.35
2022-12-08T22:27:35.904Z,9.35
2022-12-08T22:30:04.955Z,8.77
2022-12-08T22:32:32.507Z,7.63
2022-12-08T22:35:00.126Z,7.95
2022-12-08T22:37:27.647Z,8.23
2022-12-08T22:39:54.490Z,7.07
2022-12-08T22:42:21.410Z,6.68
2022-12-08T22:44:48.261Z,7.18
2022-12-08T22:47:15.521Z,7.20
2022-12-08T22:49:42.346Z,6.78
2022-12-08T22:52:09.261Z,7.88
2022-12-08T22:54:36.555Z,5.78
2022-12-08T22:57:03.793Z,6.55
2022-12-08T22:59:33.276Z,5.95
2022-12-08T23:02:00.310Z,5.22
2022-12-08T23:04:27.406Z,6.55
2022-12-08T23:06:54.248Z,5.30
2022-12-08T23:09:21.722Z,5.70
2022-12-08T23:11:48.474Z,5.38
2022-12-08T23:14:15.617Z,5.10
2022-12-08T23:16:42.564Z,5.13
2022-12-08T23:19:09.557Z,5.50
2022-12-08T23:21:36.515Z,5.15
2022-12-08T23:24:03.709Z,5.75
2022-12-08T23:26:33.229Z,5.40
2022-12-08T23:29:01.146Z,4.55
2022-12-08T23:31:28.595Z,4.80
2022-12-08T23:33:55.569Z,5.35
2022-12-08T23:36:25.866Z,4.43
2022-12-08T23:38:53.789Z,5.40
2022-12-08T23:41:21.032Z,5.78
2022-12-08T23:43:50.190Z,5.75
2022-12-08T23:46:19.726Z,4.95
2022-12-08T23:48:47.351Z,5.57
2022-12-08T23:51:15.028Z,5.20
2022-12-08T23:53:42.313Z,5.82
2022-12-08T23:56:12.413Z,5.10
2022-12-08T23:58:40.191Z,4.93
